sensor_id;sensor_type;location;lat;lon;timestamp;P1;durP1;ratioP1;P2;durP2;ratioP2
9447;SDS011;4762;48.128;11.376;2024-03-08T00:01:39;12.90;;;8.77;;
9447;SDS011;4762;48.128;11.376;2024-03-08T00:03:42;12.47;;;8.03;;
9447;SDS011;4762;48.128;11.376;2024-03-08T00:05:44;10.87;;;8.10;;
9447;SDS011;4762;48.128;11.376;2024-03-08T00:07:46;17.17;;;8.17;;
9447;SDS011;4762;48.128;11.376;2024-03-08T00:09:48;15.03;;;7.37;;
9447;SDS011;4762;48.128;11.376;2024-03-08T00:11:51;15.00;;;7.30;;
9447;SDS011;4762;48.128;11.376;2024-03-08T00:13:53;15.20;;;8.80;;
9447;SDS011;4762;48.128;11.376;2024-03-08T00:15:56;15.03;;;8.33;;
9447;SDS011;4762;48.128;11.376;2024-03-08T00:17:58;10.03;;;7.50;;
9447;SDS011;4762;48.128;11.376;2024-03-08T00:20:01;18.07;;;8.90;;
9447;SDS011;4762;48.128;11.376;2024-03-08T00:22:03;10.90;;;6.87;;
9447;SDS011;4762;48.128;11.376;2024-03-08T00:24:06;21.97;;;8.47;;
9447;SDS011;4762;48.128;11.376;2024-03-08T00:26:09;11.20;;;7.93;;
9447;SDS011;4762;48.128;11.376;2024-03-08T00:28:11;10.77;;;7.33;;
9447;SDS011;4762;48.128;11.376;2024-03-08T00:30:14;17.83;;;9.20;;
9447;SDS011;4762;48.128;11.376;2024-03-08T00:32:16;12.60;;;7.73;;
9447;SDS011;4762;48.128;11.376;2024-03-08T00:34:18;14.97;;;7.63;;
9447;SDS011;4762;48.128;11.376;2024-03-08T00:36:20;18.83;;;9.37;;
9447;SDS011;4762;48.128;11.376;2024-03-08T00:38:23;11.30;;;8.10;;
9447;SDS011;4762;48.128;11.376;2024-03-08T00:40:25;14.37;;;8.43;;
9447;SDS011;4762;48.128;11.376;2024-03-08T00:42:27;14.93;;;8.70;;
9447;SDS011;4762;48.128;11.376;2024-03-08T00:44:29;13.30;;;7.07;;
9447;SDS011;4762;48.128;11.376;2024-03-08T00:46:32;15.07;;;8.77;;
9447;SDS011;4762;48.128;11.376;2024-03-08T00:48:34;22.20;;;8.97;;
9447;SDS011;4762;48.128;11.376;2024-03-08T00:50:36;21.40;;;7.47;;
9447;SDS011;4762;48.128;11.376;2024-03-08T00:52:38;12.90;;;8.40;;
9447;SDS011;4762;48.128;11.376;2024-03-08T00:54:41;12.43;;;7.60;;
9447;SDS011;4762;48.128;11.376;2024-03-08T00:56:43;9.40;;;7.17;;
9447;SDS011;4762;48.128;11.376;2024-03-08T00:58:45;15.10;;;8.53;;
9447;SDS011;4762;48.128;11.376;2024-03-08T01:00:48;13.67;;;8.70;;
9447;SDS011;4762;48.128;11.376;2024-03-08T01:02:50;13.63;;;7.47;;
9447;SDS011;4762;48.128;11.376;2024-03-08T01:04:53;14.20;;;9.10;;
9447;SDS011;4762;48.128;11.376;2024-03-08T01:06:56;15.53;;;8.53;;
9447;SDS011;4762;48.128;11.376;2024-03-08T01:08:58;14.63;;;8.23;;
9447;SDS011;4762;48.128;11.376;2024-03-08T01:11:01;12.93;;;8.30;;
9447;SDS011;4762;48.128;11.376;2024-03-08T01:13:03;19.57;;;11.07;;
9447;SDS011;4762;48.128;11.376;2024-03-08T01:15:06;14.17;;;7.57;;
9447;SDS011;4762;48.128;11.376;2024-03-08T01:17:08;13.27;;;8.27;;
9447;SDS011;4762;48.128;11.376;2024-03-08T01:19:10;11.60;;;7.70;;
9447;SDS011;4762;48.128;11.376;2024-03-08T01:21:13;18.43;;;10.00;;
9447;SDS011;4762;48.128;11.376;2024-03-08T01:23:15;10.57;;;7.47;;
9447;SDS011;4762;48.128;11.376;2024-03-08T01:25:17;11.63;;;7.90;;
9447;SDS011;4762;48.128;11.376;2024-03-08T01:27:19;14.33;;;7.87;;
9447;SDS011;4762;48.128;11.376;2024-03-08T01:29:21;16.73;;;8.33;;
9447;SDS011;4762;48.128;11.376;2024-03-08T01:31:24;14.97;;;7.73;;
9447;SDS011;4762;48.128;11.376;2024-03-08T01:33:26;16.00;;;8.70;;
9447;SDS011;4762;48.128;11.376;2024-03-08T01:35:28;16.83;;;9.23;;
9447;SDS011;4762;48.128;11.376;2024-03-08T01:37:30;15.10;;;9.10;;
9447;SDS011;4762;48.128;11.376;2024-03-08T01:39:33;16.83;;;8.87;;
9447;SDS011;4762;48.128;11.376;2024-03-08T01:41:35;11.20;;;8.20;;
9447;SDS011;4762;48.128;11.376;2024-03-08T01:43:37;15.80;;;9.20;;
9447;SDS011;4762;48.128;11.376;2024-03-08T01:45:39;10.87;;;7.50;;
9447;SDS011;4762;48.128;11.376;2024-03-08T01:47:42;14.07;;;9.87;;
9447;SDS011;4762;48.128;11.376;2024-03-08T01:49:44;14.10;;;9.30;;
9447;SDS011;4762;48.128;11.376;2024-03-08T01:51:47;12.87;;;8.73;;
9447;SDS011;4762;48.128;11.376;2024-03-08T01:53:48;18.93;;;9.20;;
9447;SDS011;4762;48.128;11.376;2024-03-08T01:55:52;15.53;;;10.67;;
9447;SDS011;4762;48.128;11.376;2024-03-08T01:57:53;16.70;;;8.87;;
9447;SDS011;4762;48.128;11.376;2024-03-08T01:59:55;17.70;;;10.77;;
9447;SDS011;4762;48.128;11.376;2024-03-08T02:01:59;15.63;;;9.97;;
9447;SDS011;4762;48.128;11.376;2024-03-08T02:04:00;22.13;;;9.20;;
9447;SDS011;4762;48.128;11.376;2024-03-08T02:06:02;17.07;;;9.40;;
9447;SDS011;4762;48.128;11.376;2024-03-08T02:08:05;22.33;;;8.70;;
9447;SDS011;4762;48.128;11.376;2024-03-08T02:10:07;16.53;;;9.67;;
9447;SDS011;4762;48.128;11.376;2024-03-08T02:12:10;22.07;;;9.87;;
9447;SDS011;4762;48.128;11.376;2024-03-08T02:14:12;13.50;;;9.13;;
9447;SDS011;4762;48.128;11.376;2024-03-08T02:16:20;11.50;;;8.00;;
9447;SDS011;4762;48.128;11.376;2024-03-08T02:18:23;10.17;;;8.30;;
9447;SDS011;4762;48.128;11.376;2024-03-08T02:20:28;14.07;;;8.57;;
9447;SDS011;4762;48.128;11.376;2024-03-08T02:22:28;11.37;;;7.93;;
9447;SDS011;4762;48.128;11.376;2024-03-08T02:24:32;21.77;;;11.67;;
9447;SDS011;4762;48.128;11.376;2024-03-08T02:26:34;13.80;;;9.37;;
9447;SDS011;4762;48.128;11.376;2024-03-08T02:28:37;15.87;;;9.80;;
9447;SDS011;4762;48.128;11.376;2024-03-08T02:30:39;14.03;;;9.50;;
9447;SDS011;4762;48.128;11.376;2024-03-08T02:32:41;16.00;;;9.20;;
9447;SDS011;4762;48.128;11.376;2024-03-08T02:34:43;15.60;;;9.20;;
9447;SDS011;4762;48.128;11.376;2024-03-08T02:36:46;13.93;;;8.30;;
9447;SDS011;4762;48.128;11.376;2024-03-08T02:38:48;20.30;;;10.90;;
9447;SDS011;4762;48.128;11.376;2024-03-08T02:40:50;23.07;;;11.27;;
9447;SDS011;4762;48.128;11.376;2024-03-08T02:42:52;13.63;;;8.40;;
9447;SDS011;4762;48.128;11.376;2024-03-08T02:44:55;12.90;;;9.40;;
9447;SDS011;4762;48.128;11.376;2024-03-08T02:46:57;15.30;;;8.80;;
9447;SDS011;4762;48.128;11.376;2024-03-08T02:48:59;17.43;;;8.00;;
9447;SDS011;4762;48.128;11.376;2024-03-08T02:51:02;17.13;;;8.90;;
9447;SDS011;4762;48.128;11.376;2024-03-08T02:53:04;25.00;;;9.63;;
9447;SDS011;4762;48.128;11.376;2024-03-08T02:55:07;16.73;;;9.80;;
9447;SDS011;4762;48.128;11.376;2024-03-08T02:57:10;16.73;;;10.40;;
9447;SDS011;4762;48.128;11.376;2024-03-08T02:59:12;14.20;;;8.47;;
9447;SDS011;4762;48.128;11.376;2024-03-08T03:01:14;18.20;;;11.60;;
9447;SDS011;4762;48.128;11.376;2024-03-08T03:03:16;14.97;;;9.77;;
9447;SDS011;4762;48.128;11.376;2024-03-08T03:05:19;21.77;;;9.67;;
9447;SDS011;4762;48.128;11.376;2024-03-08T03:07:22;16.60;;;9.70;;
9447;SDS011;4762;48.128;11.376;2024-03-08T03:09:24;17.13;;;10.50;;
9447;SDS011;4762;48.128;11.376;2024-03-08T03:11:26;19.13;;;11.00;;
9447;SDS011;4762;48.128;11.376;2024-03-08T03:13:28;19.13;;;11.23;;
9447;SDS011;4762;48.128;11.376;2024-03-08T03:15:31;14.20;;;9.97;;
9447;SDS011;4762;48.128;11.376;2024-03-08T03:17:33;14.93;;;9.80;;
9447;SDS011;4762;48.128;11.376;2024-03-08T03:19:35;19.00;;;10.57;;
9447;SDS011;4762;48.128;11.376;2024-03-08T03:21:37;15.63;;;9.67;;
9447;SDS011;4762;48.128;11.376;2024-03-08T03:23:39;18.87;;;9.80;;
9447;SDS011;4762;48.128;11.376;2024-03-08T03:25:42;23.07;;;11.33;;
9447;SDS011;4762;48.128;11.376;2024-03-08T03:27:44;18.47;;;10.77;;
9447;SDS011;4762;48.128;11.376;2024-03-08T03:29:46;16.57;;;9.97;;
9447;SDS011;4762;48.128;11.376;2024-03-08T03:31:49;15.30;;;9.90;;
9447;SDS011;4762;48.128;11.376;2024-03-08T03:33:51;17.87;;;10.03;;
9447;SDS011;4762;48.128;11.376;2024-03-08T03:35:53;19.80;;;10.90;;
9447;SDS011;4762;48.128;11.376;2024-03-08T03:37:55;14.50;;;8.67;;
9447;SDS011;4762;48.128;11.376;2024-03-08T03:40:03;22.50;;;11.00;;
9447;SDS011;4762;48.128;11.376;2024-03-08T03:42:05;18.43;;;10.27;;
9447;SDS011;4762;48.128;11.376;2024-03-08T03:44:07;13.43;;;9.23;;
9447;SDS011;4762;48.128;11.376;2024-03-08T03:46:10;13.27;;;9.23;;
9447;SDS011;4762;48.128;11.376;2024-03-08T03:48:12;13.47;;;9.17;;
9447;SDS011;4762;48.128;11.376;2024-03-08T03:50:15;19.07;;;9.47;;
9447;SDS011;4762;48.128;11.376;2024-03-08T03:52:17;18.47;;;10.93;;
9447;SDS011;4762;48.128;11.376;2024-03-08T03:54:19;15.23;;;10.60;;
9447;SDS011;4762;48.128;11.376;2024-03-08T03:56:24;18.63;;;10.30;;
9447;SDS011;4762;48.128;11.376;2024-03-08T03:58:24;14.77;;;10.53;;
9447;SDS011;4762;48.128;11.376;2024-03-08T04:00:26;18.07;;;10.10;;
9447;SDS011;4762;48.128;11.376;2024-03-08T04:02:28;24.50;;;10.00;;
9447;SDS011;4762;48.128;11.376;2024-03-08T04:04:31;16.47;;;11.03;;
9447;SDS011;4762;48.128;11.376;2024-03-08T04:06:33;16.50;;;10.63;;
9447;SDS011;4762;48.128;11.376;2024-03-08T04:08:35;14.20;;;9.63;;
9447;SDS011;4762;48.128;11.376;2024-03-08T04:10:37;12.40;;;8.43;;
9447;SDS011;4762;48.128;11.376;2024-03-08T04:12:40;20.90;;;12.47;;
9447;SDS011;4762;48.128;11.376;2024-03-08T04:14:42;15.53;;;10.00;;
9447;SDS011;4762;48.128;11.376;2024-03-08T04:16:44;24.70;;;11.50;;
9447;SDS011;4762;48.128;11.376;2024-03-08T04:18:46;25.30;;;12.77;;
9447;SDS011;4762;48.128;11.376;2024-03-08T04:20:49;18.43;;;11.23;;
9447;SDS011;4762;48.128;11.376;2024-03-08T04:25:27;16.90;;;9.50;;
9447;SDS011;4762;48.128;11.376;2024-03-08T04:27:30;14.33;;;10.10;;
9447;SDS011;4762;48.128;11.376;2024-03-08T04:29:32;16.30;;;8.97;;
9447;SDS011;4762;48.128;11.376;2024-03-08T04:31:34;14.03;;;9.80;;
9447;SDS011;4762;48.128;11.376;2024-03-08T04:33:36;16.57;;;9.70;;
9447;SDS011;4762;48.128;11.376;2024-03-08T04:35:39;11.87;;;8.60;;
9447;SDS011;4762;48.128;11.376;2024-03-08T04:37:41;20.90;;;10.57;;
9447;SDS011;4762;48.128;11.376;2024-03-08T04:39:43;13.10;;;8.57;;
9447;SDS011;4762;48.128;11.376;2024-03-08T04:41:46;26.20;;;10.33;;
9447;SDS011;4762;48.128;11.376;2024-03-08T04:43:48;19.87;;;10.23;;
9447;SDS011;4762;48.128;11.376;2024-03-08T04:45:51;14.07;;;10.30;;
9447;SDS011;4762;48.128;11.376;2024-03-08T04:47:54;16.30;;;9.40;;
9447;SDS011;4762;48.128;11.376;2024-03-08T04:49:57;18.07;;;11.13;;
9447;SDS011;4762;48.128;11.376;2024-03-08T04:51:59;20.00;;;10.90;;
9447;SDS011;4762;48.128;11.376;2024-03-08T04:54:01;17.27;;;9.93;;
9447;SDS011;4762;48.128;11.376;2024-03-08T04:56:05;16.70;;;10.80;;
9447;SDS011;4762;48.128;11.376;2024-03-08T04:58:08;19.90;;;12.00;;
9447;SDS011;4762;48.128;11.376;2024-03-08T05:00:10;17.57;;;10.67;;
9447;SDS011;4762;48.128;11.376;2024-03-08T05:02:14;14.90;;;11.57;;
9447;SDS011;4762;48.128;11.376;2024-03-08T05:04:16;24.67;;;11.83;;
9447;SDS011;4762;48.128;11.376;2024-03-08T05:06:18;23.10;;;11.37;;
9447;SDS011;4762;48.128;11.376;2024-03-08T05:08:20;14.53;;;10.20;;
9447;SDS011;4762;48.128;11.376;2024-03-08T05:10:23;19.77;;;10.40;;
9447;SDS011;4762;48.128;11.376;2024-03-08T05:12:25;19.33;;;11.93;;
9447;SDS011;4762;48.128;11.376;2024-03-08T05:14:27;23.87;;;12.60;;
9447;SDS011;4762;48.128;11.376;2024-03-08T05:16:29;19.37;;;11.17;;
9447;SDS011;4762;48.128;11.376;2024-03-08T05:18:32;25.70;;;12.67;;
9447;SDS011;4762;48.128;11.376;2024-03-08T05:20:34;27.13;;;12.27;;
9447;SDS011;4762;48.128;11.376;2024-03-08T05:22:36;18.20;;;10.07;;
9447;SDS011;4762;48.128;11.376;2024-03-08T05:24:38;18.03;;;11.80;;
9447;SDS011;4762;48.128;11.376;2024-03-08T05:26:41;17.93;;;11.93;;
9447;SDS011;4762;48.128;11.376;2024-03-08T05:28:43;23.57;;;13.10;;
9447;SDS011;4762;48.128;11.376;2024-03-08T05:30:45;24.50;;;15.57;;
9447;SDS011;4762;48.128;11.376;2024-03-08T05:32:47;24.50;;;13.17;;
9447;SDS011;4762;48.128;11.376;2024-03-08T05:34:49;23.13;;;11.80;;
9447;SDS011;4762;48.128;11.376;2024-03-08T05:36:52;15.00;;;11.20;;
9447;SDS011;4762;48.128;11.376;2024-03-08T05:38:54;35.30;;;12.90;;
9447;SDS011;4762;48.128;11.376;2024-03-08T05:40:56;21.93;;;13.20;;
9447;SDS011;4762;48.128;11.376;2024-03-08T05:42:58;24.40;;;13.70;;
9447;SDS011;4762;48.128;11.376;2024-03-08T05:45:01;16.40;;;10.83;;
9447;SDS011;4762;48.128;11.376;2024-03-08T05:47:03;18.13;;;12.63;;
9447;SDS011;4762;48.128;11.376;2024-03-08T05:49:06;16.10;;;10.43;;
9447;SDS011;4762;48.128;11.376;2024-03-08T05:51:07;20.17;;;12.53;;
9447;SDS011;4762;48.128;11.376;2024-03-08T05:53:10;22.53;;;11.50;;
9447;SDS011;4762;48.128;11.376;2024-03-08T05:55:12;18.70;;;11.53;;
9447;SDS011;4762;48.128;11.376;2024-03-08T05:57:14;16.17;;;11.13;;
9447;SDS011;4762;48.128;11.376;2024-03-08T05:59:16;22.67;;;10.97;;
9447;SDS011;4762;48.128;11.376;2024-03-08T06:01:18;16.67;;;10.90;;
9447;SDS011;4762;48.128;11.376;2024-03-08T06:03:21;22.83;;;12.10;;
9447;SDS011;4762;48.128;11.376;2024-03-08T06:05:23;17.47;;;11.30;;
9447;SDS011;4762;48.128;11.376;2024-03-08T06:07:25;21.77;;;12.07;;
9447;SDS011;4762;48.128;11.376;2024-03-08T06:09:28;18.60;;;10.17;;
9447;SDS011;4762;48.128;11.376;2024-03-08T06:11:30;22.20;;;12.40;;
9447;SDS011;4762;48.128;11.376;2024-03-08T06:13:32;20.07;;;11.27;;
9447;SDS011;4762;48.128;11.376;2024-03-08T06:15:34;19.93;;;12.30;;
9447;SDS011;4762;48.128;11.376;2024-03-08T06:17:37;19.17;;;11.50;;
9447;SDS011;4762;48.128;11.376;2024-03-08T06:19:39;19.70;;;10.93;;
9447;SDS011;4762;48.128;11.376;2024-03-08T06:21:42;17.83;;;11.97;;
9447;SDS011;4762;48.128;11.376;2024-03-08T06:23:44;16.20;;;11.37;;
9447;SDS011;4762;48.128;11.376;2024-03-08T06:25:46;17.10;;;9.40;;
9447;SDS011;4762;48.128;11.376;2024-03-08T06:27:49;19.43;;;11.70;;
9447;SDS011;4762;48.128;11.376;2024-03-08T06:29:51;17.57;;;10.07;;
9447;SDS011;4762;48.128;11.376;2024-03-08T06:31:53;20.40;;;12.83;;
9447;SDS011;4762;48.128;11.376;2024-03-08T06:33:55;18.63;;;11.60;;
9447;SDS011;4762;48.128;11.376;2024-03-08T06:35:58;17.33;;;10.97;;
9447;SDS011;4762;48.128;11.376;2024-03-08T06:38:00;14.67;;;9.67;;
9447;SDS011;4762;48.128;11.376;2024-03-08T06:40:02;25.27;;;11.70;;
9447;SDS011;4762;48.128;11.376;2024-03-08T06:42:05;14.37;;;10.03;;
9447;SDS011;4762;48.128;11.376;2024-03-08T06:44:07;18.13;;;11.40;;
9447;SDS011;4762;48.128;11.376;2024-03-08T06:46:09;15.70;;;10.43;;
9447;SDS011;4762;48.128;11.376;2024-03-08T06:48:11;18.57;;;11.90;;
9447;SDS011;4762;48.128;11.376;2024-03-08T06:50:14;15.60;;;10.83;;
9447;SDS011;4762;48.128;11.376;2024-03-08T06:52:16;18.87;;;11.60;;
9447;SDS011;4762;48.128;11.376;2024-03-08T06:54:18;16.10;;;9.03;;
9447;SDS011;4762;48.128;11.376;2024-03-08T06:56:21;12.17;;;9.10;;
9447;SDS011;4762;48.128;11.376;2024-03-08T06:58:23;21.03;;;11.13;;
9447;SDS011;4762;48.128;11.376;2024-03-08T07:00:25;23.17;;;12.60;;
9447;SDS011;4762;48.128;11.376;2024-03-08T07:02:27;20.73;;;12.50;;
9447;SDS011;4762;48.128;11.376;2024-03-08T07:04:30;21.17;;;10.80;;
9447;SDS011;4762;48.128;11.376;2024-03-08T07:06:33;19.60;;;9.77;;
9447;SDS011;4762;48.128;11.376;2024-03-08T07:08:35;19.87;;;10.97;;
9447;SDS011;4762;48.128;11.376;2024-03-08T07:10:38;19.23;;;10.83;;
9447;SDS011;4762;48.128;11.376;2024-03-08T07:12:41;15.17;;;10.60;;
9447;SDS011;4762;48.128;11.376;2024-03-08T07:14:44;20.03;;;10.40;;
9447;SDS011;4762;48.128;11.376;2024-03-08T07:16:46;19.60;;;10.97;;
9447;SDS011;4762;48.128;11.376;2024-03-08T07:18:49;13.90;;;10.23;;
9447;SDS011;4762;48.128;11.376;2024-03-08T07:20:52;21.87;;;9.57;;
9447;SDS011;4762;48.128;11.376;2024-03-08T07:22:54;16.83;;;9.57;;
9447;SDS011;4762;48.128;11.376;2024-03-08T07:24:56;18.67;;;10.90;;
9447;SDS011;4762;48.128;11.376;2024-03-08T07:27:14;21.57;;;10.13;;
9447;SDS011;4762;48.128;11.376;2024-03-08T07:29:17;22.30;;;11.07;;
9447;SDS011;4762;48.128;11.376;2024-03-08T07:31:19;22.00;;;11.10;;
9447;SDS011;4762;48.128;11.376;2024-03-08T07:33:38;22.73;;;9.97;;
9447;SDS011;4762;48.128;11.376;2024-03-08T07:35:40;24.93;;;10.53;;
9447;SDS011;4762;48.128;11.376;2024-03-08T07:37:42;14.50;;;9.77;;
9447;SDS011;4762;48.128;11.376;2024-03-08T07:39:45;24.50;;;11.47;;
9447;SDS011;4762;48.128;11.376;2024-03-08T07:41:47;15.33;;;10.20;;
9447;SDS011;4762;48.128;11.376;2024-03-08T07:43:50;19.67;;;11.23;;
9447;SDS011;4762;48.128;11.376;2024-03-08T07:45:51;11.83;;;9.10;;
9447;SDS011;4762;48.128;11.376;2024-03-08T07:47:54;15.73;;;9.43;;
9447;SDS011;4762;48.128;11.376;2024-03-08T07:49:56;17.87;;;10.80;;
9447;SDS011;4762;48.128;11.376;2024-03-08T07:51:59;19.87;;;11.50;;
9447;SDS011;4762;48.128;11.376;2024-03-08T07:54:01;13.80;;;9.40;;
9447;SDS011;4762;48.128;11.376;2024-03-08T07:56:04;16.13;;;9.27;;
9447;SDS011;4762;48.128;11.376;2024-03-08T07:58:06;16.33;;;9.93;;
9447;SDS011;4762;48.128;11.376;2024-03-08T08:00:09;19.63;;;11.67;;
9447;SDS011;4762;48.128;11.376;2024-03-08T08:02:12;17.23;;;10.13;;
9447;SDS011;4762;48.128;11.376;2024-03-08T08:04:14;17.60;;;10.10;;
9447;SDS011;4762;48.128;11.376;2024-03-08T08:06:17;17.63;;;10.77;;
9447;SDS011;4762;48.128;11.376;2024-03-08T08:08:19;19.23;;;9.90;;
9447;SDS011;4762;48.128;11.376;2024-03-08T08:10:21;15.03;;;9.63;;
9447;SDS011;4762;48.128;11.376;2024-03-08T08:12:24;15.40;;;10.90;;
9447;SDS011;4762;48.128;11.376;2024-03-08T08:14:27;16.00;;;9.27;;
9447;SDS011;4762;48.128;11.376;2024-03-08T08:16:30;16.97;;;11.20;;
9447;SDS011;4762;48.128;11.376;2024-03-08T08:18:32;20.77;;;11.37;;
9447;SDS011;4762;48.128;11.376;2024-03-08T08:20:34;19.10;;;10.17;;
9447;SDS011;4762;48.128;11.376;2024-03-08T08:22:37;16.40;;;10.87;;
9447;SDS011;4762;48.128;11.376;2024-03-08T08:24:40;16.90;;;10.60;;
9447;SDS011;4762;48.128;11.376;2024-03-08T08:26:42;17.07;;;10.70;;
9447;SDS011;4762;48.128;11.376;2024-03-08T08:28:44;16.70;;;9.97;;
9447;SDS011;4762;48.128;11.376;2024-03-08T08:33:18;15.70;;;8.93;;
9447;SDS011;4762;48.128;11.376;2024-03-08T08:35:20;20.90;;;8.77;;
9447;SDS011;4762;48.128;11.376;2024-03-08T08:37:23;14.37;;;8.83;;
9447;SDS011;4762;48.128;11.376;2024-03-08T08:39:25;14.63;;;8.83;;
9447;SDS011;4762;48.128;11.376;2024-03-08T08:41:27;14.27;;;8.77;;
9447;SDS011;4762;48.128;11.376;2024-03-08T08:43:29;16.27;;;9.33;;
9447;SDS011;4762;48.128;11.376;2024-03-08T08:45:31;16.90;;;10.40;;
9447;SDS011;4762;48.128;11.376;2024-03-08T08:47:34;21.60;;;9.10;;
9447;SDS011;4762;48.128;11.376;2024-03-08T08:49:36;16.63;;;8.90;;
9447;SDS011;4762;48.128;11.376;2024-03-08T08:51:38;17.03;;;9.30;;
9447;SDS011;4762;48.128;11.376;2024-03-08T08:53:41;15.33;;;8.90;;
9447;SDS011;4762;48.128;11.376;2024-03-08T08:55:42;16.43;;;10.20;;
9447;SDS011;4762;48.128;11.376;2024-03-08T08:57:45;13.97;;;8.67;;
9447;SDS011;4762;48.128;11.376;2024-03-08T08:59:47;17.33;;;9.93;;
9447;SDS011;4762;48.128;11.376;2024-03-08T09:01:49;12.83;;;7.73;;
9447;SDS011;4762;48.128;11.376;2024-03-08T09:03:51;16.07;;;8.97;;
9447;SDS011;4762;48.128;11.376;2024-03-08T09:05:54;17.00;;;9.00;;
9447;SDS011;4762;48.128;11.376;2024-03-08T09:07:56;17.30;;;8.50;;
9447;SDS011;4762;48.128;11.376;2024-03-08T09:09:58;19.13;;;10.30;;
9447;SDS011;4762;48.128;11.376;2024-03-08T09:12:00;14.03;;;8.17;;
9447;SDS011;4762;48.128;11.376;2024-03-08T09:14:03;14.30;;;9.17;;
9447;SDS011;4762;48.128;11.376;2024-03-08T09:16:05;12.23;;;8.20;;
9447;SDS011;4762;48.128;11.376;2024-03-08T09:18:08;16.63;;;8.80;;
9447;SDS011;4762;48.128;11.376;2024-03-08T09:20:10;16.70;;;9.53;;
9447;SDS011;4762;48.128;11.376;2024-03-08T09:22:15;14.80;;;9.07;;
9447;SDS011;4762;48.128;11.376;2024-03-08T09:24:17;13.43;;;8.47;;
9447;SDS011;4762;48.128;11.376;2024-03-08T09:26:19;20.90;;;9.00;;
9447;SDS011;4762;48.128;11.376;2024-03-08T09:28:26;13.13;;;8.83;;
9447;SDS011;4762;48.128;11.376;2024-03-08T09:30:28;13.23;;;7.90;;
9447;SDS011;4762;48.128;11.376;2024-03-08T09:32:31;15.53;;;8.57;;
9447;SDS011;4762;48.128;11.376;2024-03-08T09:34:33;15.40;;;8.47;;
9447;SDS011;4762;48.128;11.376;2024-03-08T09:36:35;8.70;;;6.10;;
9447;SDS011;4762;48.128;11.376;2024-03-08T09:40:51;14.20;;;9.43;;
9447;SDS011;4762;48.128;11.376;2024-03-08T09:42:53;12.47;;;7.93;;
9447;SDS011;4762;48.128;11.376;2024-03-08T09:44:56;12.20;;;7.67;;
9447;SDS011;4762;48.128;11.376;2024-03-08T09:46:58;20.43;;;8.63;;
9447;SDS011;4762;48.128;11.376;2024-03-08T09:49:01;13.13;;;7.53;;
9447;SDS011;4762;48.128;11.376;2024-03-08T09:51:03;13.37;;;6.77;;
9447;SDS011;4762;48.128;11.376;2024-03-08T09:53:06;11.70;;;7.60;;
9447;SDS011;4762;48.128;11.376;2024-03-08T09:55:09;12.27;;;7.70;;
9447;SDS011;4762;48.128;11.376;2024-03-08T09:57:14;13.80;;;7.00;;
9447;SDS011;4762;48.128;11.376;2024-03-08T09:59:16;14.47;;;7.83;;
9447;SDS011;4762;48.128;11.376;2024-03-08T10:01:22;14.03;;;7.50;;
9447;SDS011;4762;48.128;11.376;2024-03-08T10:03:24;13.00;;;8.40;;
9447;SDS011;4762;48.128;11.376;2024-03-08T10:05:28;16.20;;;9.40;;
9447;SDS011;4762;48.128;11.376;2024-03-08T10:07:30;11.73;;;7.80;;
9447;SDS011;4762;48.128;11.376;2024-03-08T10:09:33;15.57;;;8.90;;
9447;SDS011;4762;48.128;11.376;2024-03-08T10:11:35;11.03;;;8.07;;
9447;SDS011;4762;48.128;11.376;2024-03-08T10:13:37;15.17;;;8.50;;
9447;SDS011;4762;48.128;11.376;2024-03-08T10:15:40;12.50;;;7.40;;
9447;SDS011;4762;48.128;11.376;2024-03-08T10:17:44;13.00;;;7.33;;
9447;SDS011;4762;48.128;11.376;2024-03-08T10:19:49;18.17;;;8.33;;
9447;SDS011;4762;48.128;11.376;2024-03-08T10:21:51;11.37;;;7.03;;
9447;SDS011;4762;48.128;11.376;2024-03-08T10:23:57;13.50;;;7.80;;
9447;SDS011;4762;48.128;11.376;2024-03-08T10:28:12;14.93;;;7.87;;
9447;SDS011;4762;48.128;11.376;2024-03-08T10:30:15;13.73;;;7.20;;
9447;SDS011;4762;48.128;11.376;2024-03-08T10:32:17;12.83;;;7.17;;
9447;SDS011;4762;48.128;11.376;2024-03-08T10:34:19;12.23;;;8.40;;
9447;SDS011;4762;48.128;11.376;2024-03-08T10:36:22;13.60;;;8.07;;
9447;SDS011;4762;48.128;11.376;2024-03-08T10:38:24;15.63;;;8.27;;
9447;SDS011;4762;48.128;11.376;2024-03-08T10:40:27;15.53;;;8.60;;
9447;SDS011;4762;48.128;11.376;2024-03-08T10:42:30;16.90;;;8.20;;
9447;SDS011;4762;48.128;11.376;2024-03-08T10:44:40;11.70;;;8.00;;
9447;SDS011;4762;48.128;11.376;2024-03-08T10:46:54;15.47;;;8.80;;
9447;SDS011;4762;48.128;11.376;2024-03-08T10:48:59;15.07;;;8.97;;
9447;SDS011;4762;48.128;11.376;2024-03-08T10:51:22;13.17;;;8.70;;
9447;SDS011;4762;48.128;11.376;2024-03-08T10:53:26;14.20;;;9.60;;
9447;SDS011;4762;48.128;11.376;2024-03-08T10:57:48;17.30;;;9.27;;
9447;SDS011;4762;48.128;11.376;2024-03-08T10:59:51;12.47;;;8.53;;
9447;SDS011;4762;48.128;11.376;2024-03-08T11:01:54;17.90;;;8.17;;
9447;SDS011;4762;48.128;11.376;2024-03-08T11:03:58;14.03;;;7.80;;
9447;SDS011;4762;48.128;11.376;2024-03-08T11:06:04;12.50;;;7.53;;
9447;SDS011;4762;48.128;11.376;2024-03-08T11:08:16;12.87;;;8.00;;
9447;SDS011;4762;48.128;11.376;2024-03-08T11:10:20;16.97;;;8.13;;
9447;SDS011;4762;48.128;11.376;2024-03-08T11:12:25;16.00;;;7.87;;
9447;SDS011;4762;48.128;11.376;2024-03-08T11:16:43;26.33;;;7.87;;
9447;SDS011;4762;48.128;11.376;2024-03-08T11:18:50;15.43;;;7.73;;
9447;SDS011;4762;48.128;11.376;2024-03-08T11:20:54;11.93;;;7.80;;
9447;SDS011;4762;48.128;11.376;2024-03-08T11:23:00;12.17;;;6.73;;
9447;SDS011;4762;48.128;11.376;2024-03-08T11:25:02;15.30;;;7.60;;
9447;SDS011;4762;48.128;11.376;2024-03-08T11:27:05;10.43;;;6.57;;
9447;SDS011;4762;48.128;11.376;2024-03-08T11:31:23;10.80;;;7.10;;
9447;SDS011;4762;48.128;11.376;2024-03-08T11:33:27;12.10;;;7.33;;
9447;SDS011;4762;48.128;11.376;2024-03-08T11:35:30;15.43;;;9.00;;
9447;SDS011;4762;48.128;11.376;2024-03-08T11:37:33;12.60;;;6.97;;
9447;SDS011;4762;48.128;11.376;2024-03-08T11:39:44;11.90;;;7.50;;
9447;SDS011;4762;48.128;11.376;2024-03-08T11:41:49;12.30;;;6.47;;
9447;SDS011;4762;48.128;11.376;2024-03-08T11:44:01;16.43;;;7.73;;
9447;SDS011;4762;48.128;11.376;2024-03-08T11:48:15;13.30;;;7.23;;
9447;SDS011;4762;48.128;11.376;2024-03-08T11:50:18;8.77;;;6.50;;
9447;SDS011;4762;48.128;11.376;2024-03-08T11:52:23;13.27;;;6.90;;
9447;SDS011;4762;48.128;11.376;2024-03-08T11:54:26;12.73;;;7.13;;
9447;SDS011;4762;48.128;11.376;2024-03-08T11:56:28;12.87;;;7.27;;
9447;SDS011;4762;48.128;11.376;2024-03-08T11:58:30;13.63;;;6.83;;
9447;SDS011;4762;48.128;11.376;2024-03-08T12:00:32;10.97;;;5.90;;
9447;SDS011;4762;48.128;11.376;2024-03-08T12:02:36;9.70;;;6.50;;
9447;SDS011;4762;48.128;11.376;2024-03-08T12:04:39;10.83;;;6.87;;
9447;SDS011;4762;48.128;11.376;2024-03-08T12:06:41;11.73;;;6.67;;
9447;SDS011;4762;48.128;11.376;2024-03-08T12:08:45;9.57;;;5.70;;
9447;SDS011;4762;48.128;11.376;2024-03-08T12:10:46;12.90;;;5.70;;
9447;SDS011;4762;48.128;11.376;2024-03-08T12:12:49;14.70;;;7.80;;
9447;SDS011;4762;48.128;11.376;2024-03-08T12:14:51;10.37;;;7.07;;
9447;SDS011;4762;48.128;11.376;2024-03-08T12:16:53;12.50;;;7.10;;
9447;SDS011;4762;48.128;11.376;2024-03-08T12:18:56;12.20;;;7.20;;
9447;SDS011;4762;48.128;11.376;2024-03-08T12:21:06;10.27;;;6.93;;
9447;SDS011;4762;48.128;11.376;2024-03-08T12:23:13;12.20;;;6.57;;
9447;SDS011;4762;48.128;11.376;2024-03-08T12:25:11;11.23;;;7.43;;
9447;SDS011;4762;48.128;11.376;2024-03-08T12:27:17;12.50;;;6.90;;
9447;SDS011;4762;48.128;11.376;2024-03-08T12:29:21;8.97;;;6.20;;
9447;SDS011;4762;48.128;11.376;2024-03-08T12:31:24;13.57;;;6.90;;
9447;SDS011;4762;48.128;11.376;2024-03-08T12:33:27;11.83;;;5.87;;
9447;SDS011;4762;48.128;11.376;2024-03-08T12:35:30;10.30;;;6.43;;